Time;durP1;ratioP1;P1;durP2;ratioP2;P2;SDS_P1;SDS_P2;PMS_P1;PMS_P2;Temp;Humidity;BMP_temperature;BMP_pressure;BME280_temperature;BME280_humidity;BME280_pressure;Samples;Min_cycle;Max_cycle;Signal;HPM_P1;HPM_P2
2023/09/25 00:00:52;;;;;;;3.85;3.45;;;;;;;11.30;88.86;101826.06;7394199;19;20376;-63
2023/09/25 00:03:19;;;;;;;4.57;3.60;;;;;;;11.32;88.55;101827.56;7393098;19;20349;-63
2023/09/25 00:05:46;;;;;;;4.60;3.45;;;;;;;11.36;88.38;101820.97;7392153;19;20371;-63
2023/09/25 00:08:13;;;;;;;5.55;3.63;;;;;;;11.39;88.17;101818.03;7392605;19;20420;-63
2023/09/25 00:10:41;;;;;;;5.40;3.20;;;;;;;11.41;88.00;101818.69;7392746;19;20952;-62
2023/09/25 00:13:09;;;;;;;4.53;3.45;;;;;;;11.43;87.78;101814.06;7391650;19;20392;-63
2023/09/25 00:15:44;;;;;;;3.72;3.38;;;;;;;11.43;87.51;101824.69;7394617;19;20432;-63
2023/09/25 00:18:14;;;;;;;3.58;3.15;;;;;;;11.42;87.42;101820.34;7392461;19;21066;-63
2023/09/25 00:20:42;;;;;;;5.10;3.60;;;;;;;11.43;87.35;101821.19;7393241;19;20917;-63
2023/09/25 00:23:09;;;;;;;4.03;3.50;;;;;;;11.41;87.14;101818.69;7393574;19;20362;-63
2023/09/25 00:25:36;;;;;;;5.53;3.55;;;;;;;11.41;87.13;101821.38;7392833;19;20360;-63
2023/09/25 00:28:03;;;;;;;4.60;3.43;;;;;;;11.40;86.95;101819.69;7392532;19;20352;-63
2023/09/25 00:30:30;;;;;;;5.30;3.47;;;;;;;11.37;86.83;101827.97;7392828;19;20466;-63
2023/09/25 00:32:58;;;;;;;3.88;3.20;;;;;;;11.35;86.87;101826.44;7394448;19;20353;-63
2023/09/25 00:35:25;;;;;;;3.47;3.17;;;;;;;11.32;86.72;101818.78;7393791;19;20357;-63
2023/09/25 00:37:51;;;;;;;4.00;3.60;;;;;;;11.32;86.71;101824.91;7391131;19;20440;-62
2023/09/25 00:40:19;;;;;;;4.60;3.50;;;;;;;11.30;86.55;101826.88;7391267;19;20367;-63
2023/09/25 00:42:47;;;;;;;5.82;3.90;;;;;;;11.27;86.70;101821.88;7394197;19;20695;-63
2023/09/25 00:45:14;;;;;;;4.72;3.92;;;;;;;11.24;86.65;101824.81;7392037;19;20393;-62
2023/09/25 00:47:42;;;;;;;6.82;3.90;;;;;;;11.20;86.67;101823.50;7392422;19;20371;-63
2023/09/25 00:50:10;;;;;;;6.53;3.78;;;;;;;11.17;86.59;101826.44;7389429;19;20413;-62
2023/09/25 00:52:41;;;;;;;8.05;4.00;;;;;;;11.15;86.71;101823.09;7391427;19;20421;-62
2023/09/25 00:55:10;;;;;;;6.20;4.47;;;;;;;11.13;86.87;101825.06;7391588;19;20427;-63
2023/09/25 00:57:40;;;;;;;6.57;4.30;;;;;;;11.11;86.83;101819.06;7391169;19;20740;-62
2023/09/25 01:00:13;;;;;;;6.82;4.03;;;;;;;11.10;86.83;101822.72;7392937;19;20409;-62
2023/09/25 01:02:40;;;;;;;5.70;3.53;;;;;;;11.08;87.04;101820.22;7389903;19;20425;-63
2023/09/25 01:05:08;;;;;;;3.97;3.30;;;;;;;11.06;86.95;101821.34;7391856;19;20403;-62
2023/09/25 01:07:36;;;;;;;4.63;3.40;;;;;;;11.04;87.06;101818.00;7389580;19;20429;-62
2023/09/25 01:10:04;;;;;;;6.03;3.73;;;;;;;11.01;87.07;101822.63;7389980;19;20385;-63
2023/09/25 01:12:31;;;;;;;6.20;3.60;;;;;;;10.99;87.11;101816.63;7393348;19;20806;-61
2023/09/25 01:14:58;;;;;;;4.90;3.38;;;;;;;10.96;87.06;101811.59;7392646;19;20352;-63
2023/09/25 01:17:25;;;;;;;6.35;3.20;;;;;;;10.93;86.95;101806.63;7392493;19;20333;-61
2023/09/25 01:19:53;;;;;;;4.57;3.67;;;;;;;10.92;87.28;101809.41;7388756;19;20810;-61
2023/09/25 01:22:19;;;;;;;5.45;3.90;;;;;;;10.89;87.22;101810.56;7391858;19;20389;-62
2023/09/25 01:24:46;;;;;;;6.05;3.92;;;;;;;10.88;87.46;101808.91;7391113;19;20365;-63
2023/09/25 01:27:13;;;;;;;4.97;3.73;;;;;;;10.89;87.37;101799.09;7389725;19;20689;-63
2023/09/25 01:29:40;;;;;;;4.80;3.95;;;;;;;10.88;87.68;101797.41;7390503;19;20428;-63
2023/09/25 01:32:07;;;;;;;5.63;4.00;;;;;;;10.87;87.78;101806.38;7389342;19;20728;-62
2023/09/25 01:34:35;;;;;;;5.65;4.00;;;;;;;10.87;87.80;101804.56;7391853;19;20373;-63
2023/09/25 01:37:04;;;;;;;7.05;3.70;;;;;;;10.87;88.00;101793.09;7390002;19;20389;-63
2023/09/25 01:39:32;;;;;;;5.50;4.03;;;;;;;10.86;87.63;101794.94;7390149;19;20398;-63
2023/09/25 01:41:59;;;;;;;4.53;3.88;;;;;;;10.84;87.57;101791.59;7391365;19;20776;-62
2023/09/25 01:44:26;;;;;;;6.70;4.03;;;;;;;10.83;87.52;101795.22;7391362;19;20374;-63
2023/09/25 01:46:52;;;;;;;6.30;4.13;;;;;;;10.82;87.77;101788.25;7389964;19;20398;-63
2023/09/25 01:49:19;;;;;;;5.93;3.70;;;;;;;10.81;87.83;101783.91;7388724;19;20440;-63
2023/09/25 01:51:46;;;;;;;6.13;4.20;;;;;;;10.80;87.65;101777.78;7390207;19;20368;-61
2023/09/25 01:54:14;;;;;;;6.30;3.90;;;;;;;10.78;87.45;101777.09;7389559;19;20408;-63
2023/09/25 01:56:41;;;;;;;5.82;3.67;;;;;;;10.77;87.50;101775.44;7390405;19;20381;-63
2023/09/25 01:59:08;;;;;;;4.68;4.18;;;;;;;10.76;87.51;101773.75;7388162;19;20895;-63
2023/09/25 02:01:34;;;;;;;5.57;4.07;;;;;;;10.74;87.54;101766.94;7388169;19;20445;-62
2023/09/25 02:04:01;;;;;;;4.75;3.90;;;;;;;10.73;87.69;101774.06;7387505;19;20917;-63
2023/09/25 02:06:28;;;;;;;4.88;3.90;;;;;;;10.73;87.62;101773.22;7387946;19;20381;-62
2023/09/25 02:08:55;;;;;;;5.32;3.80;;;;;;;10.70;87.58;101771.69;7386039;19;20369;-63
2023/09/25 02:11:22;;;;;;;4.15;3.75;;;;;;;10.69;87.57;101762.06;7388978;19;20368;-61
2023/09/25 02:13:49;;;;;;;6.70;4.10;;;;;;;10.68;87.79;101771.00;7388387;19;20368;-63
2023/09/25 02:16:18;;;;;;;4.82;4.00;;;;;;;10.67;87.37;101771.16;7390519;19;20378;-63
2023/09/25 02:18:45;;;;;;;7.33;4.20;;;;;;;10.63;87.53;101767.97;7387321;19;20393;-62
2023/09/25 02:21:12;;;;;;;5.30;3.75;;;;;;;10.60;87.42;101762.94;7387793;19;20400;-63
2023/09/25 02:23:40;;;;;;;5.20;3.95;;;;;;;10.59;87.58;101770.09;7385387;19;20446;-63
2023/09/25 02:26:07;;;;;;;6.07;3.80;;;;;;;10.58;87.73;101768.44;7385299;19;21442;-63
2023/09/25 02:28:34;;;;;;;4.40;3.67;;;;;;;10.56;88.05;101770.41;7385249;19;20825;-62
2023/09/25 02:31:01;;;;;;;4.70;3.97;;;;;;;10.59;88.28;101772.72;7388025;19;20382;-63
2023/09/25 02:33:28;;;;;;;4.40;3.80;;;;;;;10.58;88.04;101770.22;7388070;19;20780;-63
2023/09/25 02:36:09;;;;;;;4.93;3.90;;;;;;;10.54;88.16;101758.22;7384862;19;20364;-62
2023/09/25 02:38:36;;;;;;;5.80;4.07;;;;;;;10.56;88.39;101758.91;7390270;19;20403;-63
2023/09/25 02:41:03;;;;;;;6.07;4.30;;;;;;;10.56;88.44;101757.13;7387966;19;20377;-63
2023/09/25 02:43:30;;;;;;;5.05;4.15;;;;;;;10.57;88.71;101756.13;7387897;19;20368;-64
2023/09/25 02:45:57;;;;;;;5.07;3.92;;;;;;;10.58;88.62;101760.47;7386615;19;20356;-64
2023/09/25 02:48:24;;;;;;;6.75;3.85;;;;;;;10.59;88.35;101758.63;7390310;19;20728;-64
2023/09/25 02:50:51;;;;;;;5.85;4.20;;;;;;;10.58;88.62;101757.81;7387430;19;20398;-63
2023/09/25 02:53:18;;;;;;;6.10;4.17;;;;;;;10.59;88.33;101761.28;7388990;19;20372;-63
2023/09/25 02:55:49;;;;;;;4.38;3.97;;;;;;;10.60;88.46;101758.50;7386843;19;20381;-63
2023/09/25 02:58:16;;;;;;;5.90;4.07;;;;;;;10.60;88.29;101757.66;7387523;19;20411;-63
2023/09/25 03:00:44;;;;;;;5.90;4.07;;;;;;;10.60;88.25;101755.00;7387730;19;20361;-63
2023/09/25 03:03:14;;;;;;;5.15;4.18;;;;;;;10.58;88.22;101755.16;7388703;19;20389;-63
2023/09/25 03:05:42;;;;;;;4.82;4.13;;;;;;;10.59;88.41;101756.00;7388094;19;20359;-64
2023/09/25 03:08:08;;;;;;;5.47;4.20;;;;;;;10.58;88.36;101744.56;7387045;19;20642;-63
2023/09/25 03:10:35;;;;;;;5.53;4.10;;;;;;;10.58;88.26;101752.50;7387780;19;20448;-63
2023/09/25 03:13:02;;;;;;;5.33;4.03;;;;;;;10.57;88.08;101752.66;7388072;19;20382;-63
2023/09/25 03:15:29;;;;;;;5.90;4.13;;;;;;;10.54;88.16;101748.47;7386409;19;20345;-63
2023/09/25 03:17:55;;;;;;;5.47;4.20;;;;;;;10.54;88.43;101752.94;7385327;19;20400;-63
2023/09/25 03:20:24;;;;;;;4.90;4.13;;;;;;;10.52;88.29;101747.78;7391431;19;20393;-64
2023/09/25 03:22:50;;;;;;;5.10;4.10;;;;;;;10.53;88.63;101757.41;7396510;19;20393;-63
2023/09/25 03:25:17;;;;;;;5.50;4.28;;;;;;;10.53;88.65;101757.41;7394725;19;20420;-64
2023/09/25 03:27:44;;;;;;;4.95;4.40;;;;;;;10.55;88.69;101754.63;7391741;19;20407;-64
2023/09/25 03:30:13;;;;;;;6.30;4.45;;;;;;;10.57;88.96;101750.81;7393319;19;20414;-64
2023/09/25 03:32:40;;;;;;;6.25;4.25;;;;;;;10.56;89.08;101754.47;7394230;19;20875;-64
2023/09/25 03:35:07;;;;;;;7.22;4.32;;;;;;;10.57;88.70;101757.94;7393848;19;20415;-63
2023/09/25 03:37:34;;;;;;;4.78;4.05;;;;;;;10.58;88.92;101764.91;7391896;19;20864;-64
2023/09/25 03:40:07;;;;;;;5.57;3.90;;;;;;;10.58;88.79;101754.31;7391603;19;20444;-64
2023/09/25 03:42:34;;;;;;;5.78;4.35;;;;;;;10.57;88.78;101748.16;7394120;19;20386;-64
2023/09/25 03:45:01;;;;;;;4.78;4.00;;;;;;;10.57;88.56;101758.78;7393824;19;20890;-64
2023/09/25 03:47:28;;;;;;;5.43;3.77;;;;;;;10.57;88.89;101750.81;7391706;19;20369;-63
2023/09/25 03:49:55;;;;;;;5.68;4.22;;;;;;;10.56;88.76;101749.16;7393084;19;20377;-63
2023/09/25 03:52:23;;;;;;;5.15;3.92;;;;;;;10.56;88.54;101761.56;7394089;19;20491;-64
2023/09/25 03:54:50;;;;;;;4.97;3.97;;;;;;;10.55;88.44;101766.06;7392488;19;20421;-63
2023/09/25 03:57:17;;;;;;;4.40;3.95;;;;;;;10.54;88.07;101759.09;7394549;19;20436;-64
2023/09/25 03:59:44;;;;;;;6.57;4.22;;;;;;;10.52;88.01;101757.53;7389322;19;20906;-63
2023/09/25 04:02:10;;;;;;;4.45;4.05;;;;;;;10.50;88.23;101756.88;7393322;19;20865;-63
2023/09/25 04:04:37;;;;;;;4.73;3.97;;;;;;;10.50;88.09;101764.84;7393992;19;20365;-64
2023/09/25 04:07:04;;;;;;;5.78;3.80;;;;;;;10.48;88.02;101758.84;7393107;19;20341;-63
2023/09/25 04:09:31;;;;;;;4.35;3.95;;;;;;;10.46;87.75;101766.13;7392812;19;20360;-64
2023/09/25 04:11:59;;;;;;;4.20;3.80;;;;;;;10.43;87.87;101761.94;7390600;19;20416;-63
2023/09/25 04:14:27;;;;;;;5.68;4.30;;;;;;;10.42;87.67;101760.28;7391991;19;20393;-64
2023/09/25 04:16:55;;;;;;;7.55;4.28;;;;;;;10.41;87.55;101769.19;7391305;19;20367;-63
2023/09/25 04:19:21;;;;;;;6.18;4.70;;;;;;;10.39;87.73;101773.81;7392110;19;20343;-63
2023/09/25 04:21:48;;;;;;;6.05;5.45;;;;;;;10.37;87.89;101773.13;7391118;19;20381;-64
2023/09/25 04:24:15;;;;;;;11.53;7.63;;;;;;;10.35;87.81;101772.47;7393158;19;20376;-64
2023/09/25 04:26:42;;;;;;;6.13;5.07;;;;;;;10.33;87.68;101769.13;7392533;19;20864;-63
2023/09/25 04:29:14;;;;;;;7.57;5.88;;;;;;;10.30;87.69;101766.75;7393655;19;20376;-64
2023/09/25 04:31:41;;;;;;;5.20;4.70;;;;;;;10.27;87.88;101770.50;7390131;19;20383;-64
2023/09/25 04:34:10;;;;;;;7.80;6.53;;;;;;;10.33;94.80;101766.47;7395253;19;20365;-60
2023/09/25 04:36:37;;;;;;;7.07;4.20;;;;;;;10.43;90.46;101772.53;7393300;19;20381;-62
2023/09/25 04:39:04;;;;;;;5.60;4.68;;;;;;;10.63;92.87;101767.97;7392380;19;20463;-61
2023/09/25 04:41:31;;;;;;;6.50;4.40;;;;;;;10.66;90.29;101767.66;7391999;19;20376;-61
2023/09/25 04:43:58;;;;;;;6.03;4.47;;;;;;;10.66;89.07;101767.66;7392356;19;20371;-62
2023/09/25 04:46:25;;;;;;;6.53;4.60;;;;;;;10.65;89.12;101765.16;7393489;19;20467;-62
2023/09/25 04:48:52;;;;;;;6.90;4.15;;;;;;;10.63;88.30;101772.47;7390979;19;20385;-61
2023/09/25 04:51:20;;;;;;;5.80;4.32;;;;;;;10.57;88.26;101769.41;7393701;19;20393;-61
2023/09/25 04:53:47;;;;;;;6.95;4.30;;;;;;;10.55;88.31;101773.19;7391140;19;20389;-62
2023/09/25 04:56:21;;;;;;;7.40;4.97;;;;;;;10.51;88.62;101769.97;7390017;19;20886;-61
2023/09/25 04:58:48;;;;;;;6.20;4.28;;;;;;;10.49;88.23;101771.94;7391820;19;20406;-61
2023/09/25 05:01:15;;;;;;;5.72;4.80;;;;;;;10.46;87.87;101777.56;7393580;19;20364;-62
2023/09/25 05:03:42;;;;;;;5.68;4.30;;;;;;;10.42;87.84;101773.53;7390343;19;20905;-61
2023/09/25 05:06:12;;;;;;;8.18;4.90;;;;;;;10.37;87.60;101778.44;7392552;19;20351;-62
2023/09/25 05:08:39;;;;;;;5.47;4.50;;;;;;;10.34;87.90;101776.91;7389242;19;20416;-61
2023/09/25 05:11:05;;;;;;;8.32;5.70;;;;;;;10.49;94.25;101774.59;7392115;19;20349;-61
2023/09/25 05:13:34;;;;;;;5.13;4.50;;;;;;;10.53;90.38;101773.31;7390540;19;20877;-59
2023/09/25 05:16:01;;;;;;;6.05;4.28;;;;;;;10.48;88.75;101772.13;7391532;19;20365;-61
2023/09/25 05:18:32;;;;;;;6.15;4.78;;;;;;;10.41;88.09;101779.81;7387349;19;20373;-62
2023/09/25 05:20:59;;;;;;;5.07;4.35;;;;;;;10.34;87.95;101782.22;7391759;19;20356;-62
2023/09/25 05:23:26;;;;;;;5.15;4.43;;;;;;;10.29;87.74;101786.28;7389425;19;20393;-62
2023/09/25 05:25:58;;;;;;;7.10;4.90;;;;;;;10.43;92.13;101783.16;7388629;19;20366;-62
2023/09/25 05:28:25;;;;;;;6.27;5.53;;;;;;;11.26;100.00;101768.91;7391588;19;20420;-61
2023/09/25 05:30:56;;;;;;;6.18;4.40;;;;;;;12.01;98.30;101775.47;7392395;19;20771;-61
2023/09/25 05:33:23;;;;;;;5.50;4.00;;;;;;;12.39;93.79;101772.50;7390155;19;20443;-61
2023/09/25 05:35:50;;;;;;;5.00;3.53;;;;;;;12.48;89.57;101782.16;7392156;19;20341;-61
2023/09/25 05:38:18;;;;;;;7.35;3.80;;;;;;;12.57;90.11;101775.88;7392617;19;20373;-60
2023/09/25 05:40:46;;;;;;;5.40;3.30;;;;;;;12.75;88.17;101777.56;7389652;19;20376;-62
2023/09/25 05:43:12;;;;;;;6.35;3.50;;;;;;;12.74;86.15;101778.56;7389766;19;20907;-62
2023/09/25 05:45:39;;;;;;;3.60;2.92;;;;;;;12.72;84.28;101780.56;7390801;19;20876;-61
2023/09/25 05:48:06;;;;;;;3.80;3.25;;;;;;;12.61;83.47;101789.69;7391425;19;20356;-61
2023/09/25 05:50:34;;;;;;;3.97;3.00;;;;;;;12.53;83.74;101790.47;7390338;19;20443;-61
2023/09/25 05:53:01;;;;;;;4.60;3.28;;;;;;;12.54;84.71;101794.84;7392107;19;20380;-60
2023/09/25 05:55:28;;;;;;;4.40;3.05;;;;;;;12.64;84.75;101797.34;7390585;19;20368;-62
2023/09/25 05:57:55;;;;;;;6.53;3.10;;;;;;;12.71;84.55;101793.06;7376619;19;20368;-62
2023/09/25 06:00:22;;;;;;;4.72;3.00;;;;;;;12.80;83.88;101799.22;7387204;19;20891;-62
2023/09/25 06:02:50;;;;;;;6.65;3.40;;;;;;;12.92;84.13;101797.94;7390095;19;20420;-61
2023/09/25 06:05:18;;;;;;;4.05;3.00;;;;;;;13.02;83.57;101801.25;7389821;19;20370;-62
2023/09/25 06:07:45;;;;;;;4.50;2.63;;;;;;;13.14;83.00;101808.97;7388085;19;20367;-62
2023/09/25 06:10:12;;;;;;;4.00;2.67;;;;;;;13.19;82.32;101806.63;7389802;19;20993;-62
2023/09/25 06:12:39;;;;;;;11.75;9.15;;;;;;;13.24;81.80;101809.66;7384828;19;20416;-62
2023/09/25 06:15:10;;;;;;;5.05;3.30;;;;;;;13.27;81.76;101810.13;7388698;19;20352;-62
2023/09/25 06:17:38;;;;;;;18.50;14.60;;;;;;;13.29;81.04;101807.34;7389385;19;20355;-60
2023/09/25 06:20:13;;;;;;;9.27;6.38;;;;;;;13.36;81.22;101815.50;7390246;19;20359;-61
2023/09/25 06:22:40;;;;;;;222.50;189.93;;;;;;;13.50;82.70;101803.34;7388912;19;20340;-62
2023/09/25 06:25:11;;;;;;;27.92;20.40;;;;;;;13.61;81.68;101806.50;7389779;19;20379;-61
2023/09/25 06:27:39;;;;;;;58.00;45.17;;;;;;;13.70;81.53;101803.84;7388150;19;20880;-61
2023/09/25 06:30:10;;;;;;;8.68;5.22;;;;;;;13.77;81.38;101804.81;7388646;19;20748;-62
2023/09/25 06:32:37;;;;;;;6.20;3.80;;;;;;;13.85;81.30;101802.13;7390046;19;20349;-62
2023/09/25 06:35:06;;;;;;;4.90;2.83;;;;;;;13.92;80.68;101799.63;7390376;19;20378;-62
2023/09/25 06:37:34;;;;;;;4.68;2.50;;;;;;;14.06;81.06;101814.94;7388537;19;20370;-62
2023/09/25 06:40:12;;;;;;;16.35;11.32;;;;;;;14.15;80.69;101808.56;7388630;19;20376;-61
2023/09/25 06:42:39;;;;;;;4.90;2.58;;;;;;;14.33;80.49;101810.19;7389926;19;20972;-62
2023/09/25 06:45:08;;;;;;;4.20;2.38;;;;;;;14.46;79.67;101810.47;7386456;19;20356;-62
2023/09/25 06:47:35;;;;;;;7.63;4.45;;;;;;;14.53;79.31;101814.09;7386905;19;20364;-62
2023/09/25 06:50:02;;;;;;;3.10;2.23;;;;;;;14.61;79.11;101818.63;7388987;19;20368;-62
2023/09/25 06:52:29;;;;;;;3.40;2.50;;;;;;;14.67;79.37;101816.09;7389080;19;20371;-61
2023/09/25 06:54:56;;;;;;;4.22;3.17;;;;;;;14.82;79.85;101821.50;7394195;19;20984;-62
2023/09/25 06:57:23;;;;;;;3.42;2.03;;;;;;;14.93;78.50;101817.63;7401796;19;20363;-62
2023/09/25 06:59:51;;;;;;;4.82;2.67;;;;;;;14.97;77.90;101816.25;7403829;19;20368;-62
2023/09/25 07:02:17;;;;;;;4.63;2.40;;;;;;;15.03;77.99;101812.88;7402145;19;20377;-62
2023/09/25 07:04:47;;;;;;;6.85;3.40;;;;;;;15.17;77.72;101810.44;7403163;19;20379;-60
2023/09/25 07:07:14;;;;;;;4.35;2.30;;;;;;;15.26;78.15;101812.88;7402288;19;20793;-62
2023/09/25 07:09:41;;;;;;;4.20;2.50;;;;;;;15.40;77.42;101813.13;7403641;19;20405;-61
2023/09/25 07:12:12;;;;;;;6.82;3.47;;;;;;;15.51;77.36;101810.00;7401679;19;20371;-62
2023/09/25 07:14:39;;;;;;;5.07;2.20;;;;;;;15.66;77.27;101812.72;7402891;19;20336;-62
2023/09/25 07:17:06;;;;;;;9.05;4.03;;;;;;;15.75;76.65;101811.69;7401400;19;20345;-62
2023/09/25 07:19:33;;;;;;;4.15;2.75;;;;;;;15.89;76.44;101812.69;7402136;19;20781;-61
2023/09/25 07:22:00;;;;;;;18.63;13.82;;;;;;;16.04;76.36;101813.53;7403237;19;20369;-62
2023/09/25 07:24:27;;;;;;;9.73;6.32;;;;;;;16.22;75.66;101809.69;7403365;19;20366;-62
2023/09/25 07:26:54;;;;;;;17.85;12.85;;;;;;;16.40;74.98;101817.34;7402224;19;20443;-60
2023/09/25 07:29:22;;;;;;;102.68;78.05;;;;;;;16.63;74.50;101815.34;7400352;19;20376;-61
2023/09/25 07:32:07;;;;;;;9.48;6.45;;;;;;;16.89;73.53;101816.72;7401510;19;20886;-62
2023/09/25 07:34:34;;;;;;;15.32;10.63;;;;;;;17.05;73.18;101815.66;7401876;19;20385;-62
2023/09/25 07:37:04;;;;;;;21.45;13.32;;;;;;;17.21;72.99;101811.88;7399029;19;20352;-62
2023/09/25 07:39:40;;;;;;;74.00;57.42;;;;;;;17.38;71.43;101813.28;7402424;19;20401;-63
2023/09/25 07:42:07;;;;;;;12.38;7.88;;;;;;;17.59;71.16;101814.28;7400853;19;20356;-63
2023/09/25 07:44:34;;;;;;;5.78;3.55;;;;;;;17.72;70.26;101809.03;7402004;19;20371;-62
2023/09/25 07:47:06;;;;;;;12.02;9.30;;;;;;;17.82;69.37;101814.06;7401424;19;20350;-63
2023/09/25 07:49:40;;;;;;;18.00;14.23;;;;;;;17.94;68.46;101812.53;7401040;19;20460;-63
2023/09/25 07:52:18;;;;;;;3.40;2.20;;;;;;;18.05;67.89;101811.16;7401525;19;20372;-62
2023/09/25 07:54:46;;;;;;;4.47;1.90;;;;;;;18.17;67.38;101804.22;7399197;19;20364;-63
2023/09/25 07:57:19;;;;;;;14.25;10.70;;;;;;;18.22;65.24;101814.34;7402025;19;20356;-62
2023/09/25 07:59:46;;;;;;;8.35;3.80;;;;;;;18.32;65.98;101804.91;7401161;19;20351;-62
2023/09/25 08:02:20;;;;;;;2.27;1.30;;;;;;;18.47;66.21;101806.63;7400765;19;20424;-62
2023/09/25 08:04:49;;;;;;;8.48;5.20;;;;;;;18.60;65.30;101805.84;7401001;19;20373;-61
2023/09/25 08:07:18;;;;;;;3.47;2.30;;;;;;;18.66;63.59;101805.06;7395050;19;20357;-63
2023/09/25 08:09:46;;;;;;;2.40;1.30;;;;;;;18.73;62.65;101800.53;7391977;19;20759;-63
2023/09/25 08:12:12;;;;;;;15.10;10.13;;;;;;;18.81;62.88;101797.69;7390725;19;20767;-63
2023/09/25 08:14:39;;;;;;;4.30;2.70;;;;;;;18.88;62.65;101808.44;7392547;19;20932;-63
2023/09/25 08:17:08;;;;;;;4.30;1.45;;;;;;;18.87;61.42;101814.84;7394895;19;20367;-60
2023/09/25 08:19:36;;;;;;;5.47;3.22;;;;;;;18.95;62.54;101814.66;7393835;19;20341;-61
2023/09/25 08:22:03;;;;;;;6.82;3.83;;;;;;;19.11;62.21;101810.78;7394459;19;20868;-60
2023/09/25 08:24:30;;;;;;;2.70;1.48;;;;;;;19.28;61.10;101805.84;7393677;19;20372;-61
2023/09/25 08:26:57;;;;;;;4.38;2.38;;;;;;;19.32;58.51;101812.47;7392087;19;20378;-60
2023/09/25 08:29:24;;;;;;;10.82;7.28;;;;;;;19.32;57.94;101815.16;7389239;19;20372;-60
2023/09/25 08:31:51;;;;;;;25.45;19.13;;;;;;;19.51;60.67;101816.19;7393919;19;20371;-60
2023/09/25 08:34:19;;;;;;;7.38;5.18;;;;;;;19.65;60.61;101819.69;7392857;19;20344;-60
2023/09/25 08:36:45;;;;;;;49.33;34.17;;;;;;;19.88;59.92;101809.34;7393732;19;20375;-61
2023/09/25 08:39:13;;;;;;;15.43;11.57;;;;;;;20.08;60.26;101819.25;7394106;19;20474;-61
2023/09/25 08:41:41;;;;;;;18.27;13.70;;;;;;;20.20;58.23;101809.50;7392422;19;20336;-61
2023/09/25 08:44:10;;;;;;;26.90;18.92;;;;;;;20.34;58.49;101815.69;7391243;19;20705;-61
2023/09/25 08:46:37;;;;;;;7.40;4.95;;;;;;;20.48;56.59;101803.78;7394178;19;20344;-61
2023/09/25 08:49:05;;;;;;;20.75;15.43;;;;;;;20.60;56.87;101804.00;7392761;19;20360;-62
2023/09/25 08:51:37;;;;;;;8.45;5.45;;;;;;;20.68;55.45;101808.31;7392675;19;20387;-61
2023/09/25 08:54:06;;;;;;;12.23;6.97;;;;;;;20.62;55.25;101807.31;7393920;19;20368;-61
2023/09/25 08:56:33;;;;;;;5.35;2.78;;;;;;;20.67;56.45;101807.47;7392905;19;20353;-61
2023/09/25 08:59:03;;;;;;;11.25;6.20;;;;;;;20.72;54.35;101810.38;7392528;19;20432;-60
2023/09/25 09:01:30;;;;;;;5.33;3.40;;;;;;;20.77;54.38;101802.44;7390724;19;21034;-61
2023/09/25 09:03:57;;;;;;;22.73;17.63;;;;;;;20.75;53.36;101809.91;7392860;19;20861;-62
2023/09/25 09:06:24;;;;;;;6.60;4.38;;;;;;;20.87;53.97;101801.97;7391510;19;20368;-60
2023/09/25 09:08:51;;;;;;;15.07;10.73;;;;;;;20.97;53.26;101809.59;7392366;19;20368;-61
2023/09/25 09:11:20;;;;;;;3.90;1.80;;;;;;;20.96;53.25;101802.56;7391654;19;20884;-61
2023/09/25 09:13:48;;;;;;;6.55;4.82;;;;;;;20.98;53.41;101803.16;7392020;19;20372;-62
2023/09/25 09:16:19;;;;;;;11.55;7.50;;;;;;;21.03;53.66;101794.41;7392795;19;20364;-61
2023/09/25 09:18:47;;;;;;;4.72;2.20;;;;;;;21.08;51.20;101790.03;7391165;19;20378;-61
2023/09/25 09:21:33;;;;;;;6.20;2.97;;;;;;;21.08;51.95;101792.72;7391552;19;20386;-61
2023/09/25 09:24:00;;;;;;;92.90;68.05;;;;;;;21.21;53.82;101790.97;7391271;19;20444;-61
2023/09/25 09:26:27;;;;;;;19.33;13.55;;;;;;;21.27;52.36;101795.47;7391811;19;21003;-61
2023/09/25 09:28:54;;;;;;;8.23;5.35;;;;;;;21.28;52.63;101786.34;7391263;19;20421;-61
2023/09/25 09:31:21;;;;;;;5.47;3.80;;;;;;;21.36;52.45;101788.78;7392372;19;20365;-62
2023/09/25 09:33:48;;;;;;;2.95;1.10;;;;;;;21.49;52.63;101786.00;7392333;19;20357;-61
2023/09/25 09:36:15;;;;;;;8.80;6.23;;;;;;;21.35;49.41;101784.41;7391429;19;20365;-61
2023/09/25 09:38:44;;;;;;;6.32;3.85;;;;;;;21.27;51.72;101788.22;7390685;19;20402;-59
2023/09/25 09:41:11;;;;;;;17.48;12.43;;;;;;;21.36;52.38;101784.19;7390108;19;20352;-60
2023/09/25 09:43:38;;;;;;;16.25;11.15;;;;;;;21.40;51.09;101787.31;7389438;19;20903;-60
2023/09/25 09:46:07;;;;;;;4.80;2.95;;;;;;;21.49;51.78;101780.59;7389755;19;20860;-60
2023/09/25 09:48:36;;;;;;;5.23;3.30;;;;;;;21.51;49.46;101780.38;7390908;19;21094;-60
2023/09/25 09:51:09;;;;;;;8.93;6.20;;;;;;;21.59;50.96;101777.38;7391797;19;20378;-60
2023/09/25 09:53:36;;;;;;;5.25;3.08;;;;;;;21.69;49.70;101771.47;7390758;19;20439;-61
2023/09/25 09:56:03;;;;;;;6.40;2.38;;;;;;;21.79;51.02;101772.63;7389890;19;20374;-60
2023/09/25 09:58:31;;;;;;;3.58;1.20;;;;;;;21.94;50.86;101774.94;7386339;19;20392;-60
2023/09/25 10:01:00;;;;;;;3.03;1.45;;;;;;;22.05;50.03;101769.84;7390334;19;20340;-60
2023/09/25 10:03:29;;;;;;;3.95;1.98;;;;;;;22.08;49.13;101759.44;7390264;19;20726;-59
2023/09/25 10:05:56;;;;;;;2.28;0.90;;;;;;;22.11;49.10;101768.97;7390084;19;20346;-61
2023/09/25 10:08:23;;;;;;;3.83;2.10;;;;;;;21.99;46.57;101767.03;7389120;19;20430;-61
2023/09/25 10:10:51;;;;;;;41.03;32.33;;;;;;;21.98;47.81;101756.44;7390022;19;20357;-61
2023/09/25 10:13:26;;;;;;;7.40;5.65;;;;;;;21.99;47.11;101758.91;7389366;19;20716;-61
2023/09/25 10:16:01;;;;;;;9.60;6.75;;;;;;;22.02;46.80;101754.94;7387974;19;20360;-61
2023/09/25 10:18:30;;;;;;;3.53;1.48;;;;;;;21.84;46.76;101753.03;7389365;19;20383;-60
2023/09/25 10:21:08;;;;;;;2.10;1.10;;;;;;;21.76;46.58;101753.31;7389802;19;20351;-61
2023/09/25 10:23:39;;;;;;;34.40;23.83;;;;;;;21.76;48.10;101751.47;7389124;19;20499;-60
2023/09/25 10:26:16;;;;;;;44.03;33.13;;;;;;;21.82;47.55;101749.72;7389937;19;20382;-61
2023/09/25 10:28:44;;;;;;;7.20;4.72;;;;;;;22.02;48.24;101754.13;7387733;19;20356;-61
2023/09/25 10:31:21;;;;;;;4.47;2.97;;;;;;;22.15;46.64;101748.53;7385199;19;20361;-61
2023/09/25 10:34:04;;;;;;;2.63;1.50;;;;;;;22.25;47.23;101743.47;7388226;19;20380;-59
2023/09/25 10:36:59;;;;;;;2.42;1.15;;;;;;;22.41;45.68;101750.09;7390185;19;20462;-61
2023/09/25 10:39:27;;;;;;;2.60;1.10;;;;;;;22.48;45.43;101741.91;7389394;19;20366;-61
2023/09/25 10:42:21;;;;;;;2.20;1.02;;;;;;;22.63;46.81;101749.59;7388701;19;20383;-60
2023/09/25 10:44:48;;;;;;;3.25;1.42;;;;;;;22.72;46.07;101743.66;7389159;19;20393;-61
2023/09/25 10:47:15;;;;;;;1.97;1.17;;;;;;;22.87;45.48;101750.53;7389072;19;20423;-61
2023/09/25 10:49:42;;;;;;;18.95;15.40;;;;;;;23.00;45.62;101744.91;7389149;19;20698;-60
2023/09/25 10:52:09;;;;;;;4.47;2.20;;;;;;;23.13;45.51;101742.00;7386924;19;20434;-61
2023/09/25 10:54:36;;;;;;;19.00;15.23;;;;;;;23.29;46.64;101743.22;7389997;19;20382;-61
2023/09/25 10:57:03;;;;;;;40.70;31.30;;;;;;;23.33;45.54;101741.66;7389914;19;20332;-61
2023/09/25 10:59:30;;;;;;;9.10;6.20;;;;;;;23.34;43.93;101737.91;7387892;19;20360;-61
2023/09/25 11:01:56;;;;;;;4.43;2.73;;;;;;;23.40;43.24;101738.84;7389569;19;20367;-60
2023/09/25 11:04:23;;;;;;;9.50;6.40;;;;;;;23.46;44.45;101732.50;7389152;19;20570;-61
2023/09/25 11:06:51;;;;;;;3.85;1.55;;;;;;;23.51;43.26;101735.31;7388843;19;20361;-61
2023/09/25 11:09:18;;;;;;;2.30;1.15;;;;;;;23.72;43.42;101714.94;7389069;19;20371;-61
2023/09/25 11:11:46;;;;;;;2.90;1.13;;;;;;;23.69;40.31;101728.13;7385439;19;20379;-60
2023/09/25 11:14:13;;;;;;;2.75;1.63;;;;;;;23.72;42.71;101719.53;7386955;19;20336;-61
2023/09/25 11:16:40;;;;;;;13.75;10.15;;;;;;;23.76;42.14;101718.03;7388511;19;20389;-61
2023/09/25 11:19:15;;;;;;;17.90;13.80;;;;;;;23.78;41.28;101721.28;7389032;19;20366;-61
2023/09/25 11:21:47;;;;;;;8.75;6.07;;;;;;;23.90;41.52;101711.25;7389233;19;20344;-60
2023/09/25 11:24:14;;;;;;;3.60;1.80;;;;;;;24.16;41.54;101709.06;7384122;19;20732;-59
2023/09/25 11:26:42;;;;;;;2.67;1.13;;;;;;;24.32;40.59;101713.72;7386863;19;20357;-60